Time;durP1;ratioP1;P1;durP2;ratioP2;P2;SDS_P1;SDS_P2;PMS_P1;PMS_P2;Temp;Humidity;BMP_temperature;BMP_pressure;BME280_temperature;BME280_humidity;BME280_pressure;Samples;Min_cycle;Max_cycle;Signal;HPM_P1;HPM_P2
2023/05/13 00:01:15;;;;;;;2.17;1.87;;;11.90;85.60;11.80;100934.00;;;;4923984;28;93292;-69
2023/05/13 00:03:41;;;;;;;4.30;2.13;;;11.90;86.00;11.80;100933.00;;;;4921276;28;121850;-69
2023/05/13 00:06:07;;;;;;;3.53;2.20;;;11.80;86.50;11.80;100923.00;;;;4920530;28;110819;-69
2023/05/13 00:08:33;;;;;;;2.07;1.87;;;11.80;87.00;11.70;100929.00;;;;4922150;28;108850;-69
2023/05/13 00:10:59;;;;;;;2.30;2.10;;;11.80;87.40;11.70;100931.00;;;;4925602;28;122572;-69
2023/05/13 00:13:25;;;;;;;3.13;2.80;;;11.80;87.60;11.70;100928.00;;;;4925433;28;118472;-69
2023/05/13 00:15:51;;;;;;;1.70;1.60;;;11.80;88.00;11.70;100930.00;;;;4924824;28;92252;-69
2023/05/13 00:18:17;;;;;;;3.37;2.30;;;11.70;88.50;11.70;100924.00;;;;4925537;28;92996;-69
2023/05/13 00:20:42;;;;;;;3.40;2.43;;;11.50;88.80;11.70;100931.00;;;;4923294;28;115214;-69
2023/05/13 00:23:08;;;;;;;3.73;1.90;;;11.80;89.30;11.70;100941.00;;;;4918940;28;122855;-69
2023/05/13 00:25:34;;;;;;;2.37;1.97;;;11.80;89.60;11.70;100936.00;;;;4926393;28;92964;-69
2023/05/13 00:28:00;;;;;;;10.03;2.60;;;11.80;90.10;11.70;100932.00;;;;4924257;28;93405;-68
2023/05/13 00:30:25;;;;;;;2.50;2.23;;;11.70;90.20;11.60;100939.00;;;;4924921;28;94104;-69
2023/05/13 00:32:51;;;;;;;2.23;1.83;;;11.70;90.40;11.60;100942.00;;;;4922512;28;120182;-69
2023/05/13 00:35:17;;;;;;;2.50;2.30;;;11.70;90.60;11.70;100938.00;;;;4921820;28;111554;-69
2023/05/13 00:37:43;;;;;;;2.40;2.20;;;11.70;90.90;11.60;100942.00;;;;4924294;28;108093;-69
2023/05/13 00:40:20;;;;;;;2.90;2.50;;;11.70;90.90;11.60;100947.00;;;;4924988;28;92911;-69
2023/05/13 00:42:46;;;;;;;3.50;2.20;;;11.70;91.10;11.50;100944.00;;;;4927384;28;93197;-69
2023/05/13 00:45:11;;;;;;;5.27;2.40;;;11.70;91.30;11.50;100939.00;;;;4924721;28;110058;-69
2023/05/13 00:47:39;;;;;;;5.27;3.07;;;11.60;91.40;11.40;100943.00;;;;4920565;28;109299;-69
2023/05/13 00:50:07;;;;;;;1.73;1.63;;;11.60;91.70;11.40;100949.00;;;;4924185;28;94291;-69
2023/05/13 00:52:33;;;;;;;4.53;2.67;;;11.50;91.80;11.30;100952.00;;;;4923945;28;112062;-69
2023/05/13 00:54:58;;;;;;;3.17;2.67;;;11.50;91.90;11.30;100954.00;;;;4920545;28;108808;-69
2023/05/13 00:57:24;;;;;;;3.13;2.60;;;11.40;92.10;11.20;100958.00;;;;4924463;28;108368;-69
2023/05/13 00:59:50;;;;;;;3.37;2.33;;;11.30;92.20;11.20;100955.00;;;;4922604;28;120531;-69
2023/05/13 01:02:36;;;;;;;2.57;2.27;;;11.30;92.50;11.10;100961.00;;;;4923076;28;122474;-69
2023/05/13 01:05:45;;;;;;;2.90;2.37;;;11.40;92.90;11.10;100961.00;;;;4924082;28;92241;-69
2023/05/13 01:08:23;;;;;;;3.43;2.47;;;11.20;92.90;11.10;100961.00;;;;4925291;28;96762;-69
2023/05/13 01:10:57;;;;;;;2.57;2.37;;;11.20;93.10;11.10;100960.00;;;;4924658;28;92905;-69
2023/05/13 01:13:26;;;;;;;3.97;3.00;;;11.20;93.60;11.10;100968.00;;;;4925528;28;111937;-69
2023/05/13 01:16:30;;;;;;;2.57;2.20;;;11.20;93.30;11.00;100965.00;;;;4925141;28;93153;-69
2023/05/13 01:19:00;;;;;;;2.40;2.20;;;11.20;93.40;11.00;100965.00;;;;4915661;28;92998;-69
2023/05/13 01:21:27;;;;;;;4.67;2.13;;;11.10;93.70;10.90;100974.00;;;;4923810;28;105542;-69
2023/05/13 01:23:54;;;;;;;2.60;2.37;;;11.10;93.80;10.90;100973.00;;;;4923666;28;94076;-69
2023/05/13 01:26:22;;;;;;;4.10;2.77;;;11.00;93.90;10.80;100974.00;;;;4927264;28;93622;-69
2023/05/13 01:28:48;;;;;;;2.47;2.20;;;11.00;94.10;10.80;100974.00;;;;4926728;28;92794;-69
2023/05/13 01:31:14;;;;;;;2.47;2.07;;;10.90;94.20;10.70;100980.00;;;;4927440;28;121412;-69
2023/05/13 01:33:41;;;;;;;3.17;2.63;;;10.80;94.40;10.70;100976.00;;;;4921104;28;121001;-69
2023/05/13 01:36:08;;;;;;;2.97;2.53;;;10.80;94.50;10.60;100984.00;;;;4923039;28;103608;-69
2023/05/13 01:38:36;;;;;;;3.00;2.80;;;10.70;94.60;10.50;100982.00;;;;4921082;28;109196;-69
2023/05/13 01:41:02;;;;;;;3.83;2.40;;;10.60;94.90;10.50;100979.00;;;;4923228;28;122007;-69
2023/05/13 01:43:27;;;;;;;3.73;2.80;;;10.60;95.20;10.40;100974.00;;;;4928497;28;93054;-69
2023/05/13 01:45:54;;;;;;;4.20;2.60;;;10.50;95.50;10.40;100980.00;;;;4925244;28;107923;-70
2023/05/13 01:48:19;;;;;;;3.80;2.50;;;10.50;95.80;10.40;100974.00;;;;4924736;28;107413;-69
2023/05/13 01:50:45;;;;;;;2.73;2.53;;;10.50;96.00;10.40;100985.00;;;;4920587;28;101970;-69
2023/05/13 01:53:11;;;;;;;3.30;2.53;;;10.50;96.30;10.40;100979.00;;;;4923454;28;93084;-69
2023/05/13 01:55:37;;;;;;;3.20;2.50;;;10.50;96.40;10.40;100979.00;;;;4927511;28;92303;-69
2023/05/13 01:58:02;;;;;;;2.47;2.27;;;10.50;96.60;10.40;100980.00;;;;4924799;28;102274;-69
2023/05/13 02:00:28;;;;;;;3.47;3.17;;;10.20;96.80;10.40;100988.00;;;;4924791;28;122028;-69
2023/05/13 02:02:54;;;;;;;5.63;3.50;;;10.50;97.00;10.40;100985.00;;;;4924722;28;121452;-68
2023/05/13 02:05:20;;;;;;;3.43;2.97;;;10.50;97.30;10.40;100981.00;;;;4928892;28;92708;-69
2023/05/13 02:07:45;;;;;;;2.83;2.63;;;10.50;97.50;10.40;100992.00;;;;4926845;28;93223;-69
2023/05/13 02:10:11;;;;;;;4.20;3.10;;;10.50;97.60;10.50;100987.00;;;;4926437;28;123272;-69
2023/05/13 02:12:37;;;;;;;3.37;2.77;;;10.60;97.90;10.40;100984.00;;;;4924719;28;93980;-69
2023/05/13 02:15:03;;;;;;;3.57;2.37;;;10.50;97.60;10.30;100979.00;;;;4924995;28;92865;-69
2023/05/13 02:17:29;;;;;;;6.67;2.77;;;10.40;97.70;10.20;100979.00;;;;4924484;28;99939;-69
2023/05/13 02:19:57;;;;;;;3.13;2.30;;;10.40;97.90;10.20;100985.00;;;;4933605;28;92075;-69
2023/05/13 02:22:23;;;;;;;3.23;2.47;;;10.30;98.20;10.10;100983.00;;;;4926302;28;121926;-69
2023/05/13 02:24:49;;;;;;;3.27;2.57;;;10.30;98.30;10.00;100980.00;;;;4926387;28;102763;-69
2023/05/13 02:27:15;;;;;;;2.57;2.13;;;10.20;98.40;9.90;100974.00;;;;4926014;28;94955;-69
2023/05/13 02:29:41;;;;;;;2.83;2.63;;;10.10;98.70;9.80;100981.00;;;;4929873;28;93018;-69
2023/05/13 02:32:07;;;;;;;3.63;3.33;;;9.90;98.90;9.80;100974.00;;;;4924561;28;122764;-69
2023/05/13 02:34:33;;;;;;;7.10;3.27;;;9.90;99.30;9.70;100973.00;;;;4926116;28;111273;-69
2023/05/13 02:36:58;;;;;;;5.80;3.67;;;9.90;99.40;9.70;100978.00;;;;4928801;28;92990;-69
2023/05/13 02:39:24;;;;;;;5.27;3.10;;;9.80;99.60;9.70;100978.00;;;;4925971;28;124680;-69
2023/05/13 02:41:50;;;;;;;4.13;2.60;;;9.80;99.70;9.70;100977.00;;;;4923061;28;121410;-69
2023/05/13 02:44:15;;;;;;;5.10;3.40;;;9.80;99.90;9.70;100982.00;;;;4929741;28;92302;-68
2023/05/13 02:46:43;;;;;;;2.63;2.07;;;9.80;99.90;9.60;100975.00;;;;4925833;28;109731;-69
2023/05/13 02:49:09;;;;;;;2.73;2.13;;;9.70;99.90;9.50;100982.00;;;;4924532;28;93778;-68
2023/05/13 02:51:35;;;;;;;3.73;3.00;;;9.70;99.90;9.50;100989.00;;;;4925608;28;98570;-68
2023/05/13 02:54:00;;;;;;;3.83;2.73;;;9.70;99.90;9.50;100982.00;;;;4926077;28;110400;-68
2023/05/13 02:56:26;;;;;;;3.73;3.07;;;9.60;99.90;9.50;100991.00;;;;4924037;28;108974;-68
2023/05/13 02:58:52;;;;;;;3.20;2.47;;;9.60;99.90;9.40;100986.00;;;;4922780;28;121838;-68
2023/05/13 03:01:17;;;;;;;4.90;3.47;;;9.60;99.90;9.40;100987.00;;;;4925316;28;92933;-68
2023/05/13 03:03:43;;;;;;;7.23;3.37;;;9.50;99.90;9.30;100992.00;;;;4921875;28;110496;-68
2023/05/13 03:06:08;;;;;;;4.60;3.47;;;9.50;99.90;9.30;100995.00;;;;4925367;28;109182;-68
2023/05/13 03:08:34;;;;;;;3.13;2.50;;;9.40;99.90;9.30;100992.00;;;;4923173;28;96087;-68
2023/05/13 03:11:00;;;;;;;5.03;3.30;;;9.40;99.90;9.30;100991.00;;;;4924858;28;121897;-68
2023/05/13 03:13:25;;;;;;;2.63;2.43;;;9.40;99.90;9.30;100999.00;;;;4925317;28;110283;-68
2023/05/13 03:15:51;;;;;;;3.30;3.07;;;9.40;99.90;9.30;100990.00;;;;4923199;28;108226;-68
2023/05/13 03:18:17;;;;;;;2.73;2.53;;;9.40;99.90;9.30;100993.00;;;;4925824;28;121518;-68
2023/05/13 03:20:42;;;;;;;11.23;3.77;;;9.40;99.90;9.30;100988.00;;;;4925869;28;123454;-68
2023/05/13 03:23:08;;;;;;;3.50;3.20;;;9.40;99.90;9.30;100992.00;;;;4923360;28;109758;-68
2023/05/13 03:25:34;;;;;;;3.77;3.40;;;9.40;99.90;9.30;100987.00;;;;4924536;28;108170;-68
2023/05/13 03:28:01;;;;;;;4.63;2.80;;;9.40;99.90;9.20;100998.00;;;;4921698;28;120593;-68
2023/05/13 03:30:27;;;;;;;6.20;2.73;;;9.30;99.90;9.20;100991.00;;;;4928208;28;93393;-68
2023/05/13 03:32:53;;;;;;;3.83;2.93;;;9.40;99.90;9.30;101001.00;;;;4925193;28;92063;-69
2023/05/13 03:35:18;;;;;;;3.80;2.53;;;9.40;99.90;9.30;101003.00;;;;4913972;28;107946;-69
2023/05/13 03:37:44;;;;;;;4.90;3.37;;;9.40;99.90;9.30;100992.00;;;;4923351;28;121161;-69
2023/05/13 03:40:10;;;;;;;3.37;3.07;;;9.40;99.90;9.30;100993.00;;;;4924752;28;111674;-68
2023/05/13 03:42:36;;;;;;;5.07;3.37;;;9.40;99.90;9.20;100987.00;;;;4923395;28;93200;-69
2023/05/13 03:45:08;;;;;;;2.63;2.17;;;9.40;99.90;9.30;100988.00;;;;4924334;28;92825;-69
2023/05/13 03:47:34;;;;;;;3.50;3.17;;;9.40;99.90;9.30;100992.00;;;;4923191;28;108095;-68
2023/05/13 03:50:00;;;;;;;4.23;3.07;;;9.40;99.90;9.30;100991.00;;;;4924743;28;93915;-68
2023/05/13 03:52:25;;;;;;;3.00;2.77;;;9.40;99.90;9.30;100995.00;;;;4924067;28;108431;-68
2023/05/13 03:54:51;;;;;;;2.93;2.73;;;9.40;99.90;9.30;100995.00;;;;4924211;28;107349;-69
2023/05/13 03:57:16;;;;;;;4.30;3.87;;;9.50;99.90;9.40;100993.00;;;;4925602;28;120357;-68
2023/05/13 03:59:45;;;;;;;4.60;2.67;;;9.50;99.90;9.50;101009.00;;;;4921697;28;121809;-68
2023/05/13 04:02:17;;;;;;;3.47;2.60;;;9.60;99.90;9.60;101005.00;;;;4915285;28;92996;-68
2023/05/13 04:04:43;;;;;;;4.13;2.77;;;9.70;99.90;9.70;101001.00;;;;4929450;28;93805;-68
2023/05/13 04:07:08;;;;;;;3.57;2.70;;;9.80;99.90;9.80;101001.00;;;;4924683;28;122206;-69
2023/05/13 04:09:34;;;;;;;2.70;2.50;;;9.90;99.90;9.90;101005.00;;;;4920210;28;121542;-68
2023/05/13 04:12:00;;;;;;;3.53;2.83;;;10.00;99.90;10.10;101007.00;;;;4925165;28;111086;-69
2023/05/13 04:14:25;;;;;;;3.67;3.13;;;10.10;99.90;10.20;101006.00;;;;4929617;28;93032;-69
2023/05/13 04:16:51;;;;;;;4.83;2.27;;;10.20;99.90;10.30;101013.00;;;;4923338;28;123320;-69
2023/05/13 04:19:16;;;;;;;4.33;2.73;;;10.30;99.90;10.40;101014.00;;;;4921572;28;123269;-68
2023/05/13 04:21:42;;;;;;;2.97;2.67;;;10.40;99.90;10.50;101006.00;;;;4925383;28;110024;-68
2023/05/13 04:24:08;;;;;;;2.70;2.50;;;10.50;99.90;10.60;101017.00;;;;4920581;28;108711;-68
2023/05/13 04:26:33;;;;;;;3.13;2.87;;;10.60;99.90;10.70;101020.00;;;;4924682;28;122128;-69
2023/05/13 04:28:59;;;;;;;3.70;3.33;;;11.90;99.90;10.70;101020.00;;;;4921079;28;120172;-69
2023/05/13 04:31:25;;;;;;;4.10;3.70;;;10.50;99.90;10.80;101037.00;;;;4920251;28;103576;-69
2023/05/13 04:33:50;;;;;;;4.43;3.07;;;10.80;99.90;10.80;101026.00;;;;4916319;28;107718;-69
2023/05/13 04:36:16;;;;;;;3.30;2.83;;;10.90;99.90;10.90;101024.00;;;;4919921;28;119387;-69
2023/05/13 04:38:42;;;;;;;3.13;2.83;;;11.00;99.90;11.00;101022.00;;;;4923316;28;92927;-69
2023/05/13 04:41:07;;;;;;;4.37;3.20;;;11.00;99.90;11.10;101019.00;;;;4922577;28;93151;-68
2023/05/13 04:43:33;;;;;;;4.43;3.70;;;11.10;99.90;11.20;101033.00;;;;4920794;28;101981;-68
2023/05/13 04:45:59;;;;;;;5.13;3.73;;;11.00;99.90;11.30;101030.00;;;;4922556;28;92699;-68
2023/05/13 04:48:26;;;;;;;3.57;2.57;;;11.30;99.90;11.40;101031.00;;;;4924334;28;95245;-69
2023/05/13 04:50:52;;;;;;;3.07;2.57;;;11.40;99.90;11.50;101035.00;;;;4923614;28;93309;-68
2023/05/13 04:53:18;;;;;;;5.80;3.33;;;11.50;99.90;11.60;101033.00;;;;4920880;28;108303;-68
2023/05/13 04:55:47;;;;;;;6.80;3.93;;;11.60;99.90;11.60;101036.00;;;;4921020;28;103832;-68
2023/05/13 04:58:16;;;;;;;4.10;2.97;;;12.00;99.90;11.60;101041.00;;;;4921580;28;114555;-68
2023/05/13 05:00:42;;;;;;;6.20;3.83;;;11.70;99.90;11.60;101040.00;;;;4921782;28;93087;-68
2023/05/13 05:03:07;;;;;;;3.37;3.07;;;11.70;99.90;11.70;101047.00;;;;4895386;28;93119;-68
2023/05/13 05:05:33;;;;;;;3.67;3.10;;;11.70;99.90;11.80;101046.00;;;;4919689;28;115804;-68
2023/05/13 05:07:59;;;;;;;6.27;3.27;;;11.70;99.90;12.00;101049.00;;;;4918902;28;124851;-68
2023/05/13 05:10:24;;;;;;;3.10;2.73;;;11.90;99.90;12.10;101050.00;;;;4921797;28;92737;-69
2023/05/13 05:12:50;;;;;;;3.70;3.10;;;12.10;99.90;12.30;101052.00;;;;4921721;28;93225;-69
2023/05/13 05:15:16;;;;;;;4.63;3.17;;;12.20;99.90;12.40;101061.00;;;;4920907;28;121408;-68
2023/05/13 05:17:42;;;;;;;3.33;2.60;;;12.30;99.90;12.60;101060.00;;;;4919752;28;122176;-69
2023/05/13 05:20:09;;;;;;;3.93;3.33;;;12.40;99.90;12.70;101065.00;;;;4918662;28;92885;-69
2023/05/13 05:22:37;;;;;;;6.43;3.37;;;12.50;99.90;12.70;101062.00;;;;4922142;28;93166;-70
2023/05/13 05:25:03;;;;;;;3.43;3.13;;;12.60;99.90;12.80;101079.00;;;;4923984;28;93486;-69
2023/05/13 05:27:29;;;;;;;3.13;2.40;;;12.70;99.90;12.90;101077.00;;;;4919215;28;114931;-69
2023/05/13 05:29:54;;;;;;;3.33;2.40;;;12.80;99.90;13.00;101077.00;;;;4925003;28;93087;-70
2023/05/13 05:32:20;;;;;;;3.27;2.97;;;12.90;99.90;13.20;101084.00;;;;4922015;28;108968;-69
2023/05/13 05:34:46;;;;;;;3.40;2.63;;;13.10;99.90;13.30;101075.00;;;;4924249;28;123191;-68
2023/05/13 05:37:11;;;;;;;4.57;3.00;;;13.20;99.90;13.50;101082.00;;;;4922755;28;120543;-69
2023/05/13 05:39:37;;;;;;;4.90;2.50;;;13.40;99.90;13.60;101078.00;;;;4921076;28;110059;-70
2023/05/13 05:42:03;;;;;;;3.17;2.60;;;13.50;99.90;13.80;101085.00;;;;4924712;28;93960;-68
2023/05/13 05:44:29;;;;;;;6.37;3.17;;;13.60;99.90;13.90;101075.00;;;;4924855;28;118917;-68
2023/05/13 05:46:54;;;;;;;3.80;2.47;;;13.70;99.90;14.10;101073.00;;;;4925191;28;94066;-71
2023/05/13 05:49:20;;;;;;;2.47;2.20;;;13.90;99.90;14.30;101074.00;;;;4924970;28;101849;-71
2023/05/13 05:51:46;;;;;;;5.40;2.43;;;14.10;99.90;14.50;101074.00;;;;4925285;28;109854;-68
2023/05/13 05:54:11;;;;;;;3.23;2.80;;;14.30;99.90;14.80;101073.00;;;;4925436;28;107077;-70
2023/05/13 05:56:37;;;;;;;3.23;2.47;;;14.60;99.90;15.00;101081.00;;;;4928123;28;120871;-68
2023/05/13 05:59:03;;;;;;;3.40;2.78;;;14.80;99.90;15.30;101073.00;;;;4922218;28;110549;-71
2023/05/13 06:01:35;;;;;;;3.17;2.87;;;15.10;99.70;15.50;101073.00;;;;4925520;28;108324;-69
2023/05/13 06:04:02;;;;;;;3.92;2.53;;;15.30;99.30;15.80;101068.00;;;;4923026;28;93113;-69
2023/05/13 06:06:27;;;;;;;2.08;1.92;;;15.60;98.90;16.10;101077.00;;;;4925744;28;94158;-69
2023/05/13 06:08:53;;;;;;;7.72;2.90;;;15.90;98.40;16.30;101077.00;;;;4922330;28;109733;-70
2023/05/13 06:11:19;;;;;;;3.40;2.33;;;16.20;97.90;16.60;101074.00;;;;4928848;28;105333;-70
2023/05/13 06:13:44;;;;;;;2.42;2.15;;;16.40;97.40;16.80;101073.00;;;;4923038;28;122866;-71
2023/05/13 06:16:10;;;;;;;3.92;2.08;;;16.60;96.90;17.00;101070.00;;;;4924233;28;93851;-70
2023/05/13 06:18:35;;;;;;;2.22;1.65;;;16.90;95.90;17.20;101068.00;;;;4922822;28;110308;-71
2023/05/13 06:21:01;;;;;;;4.00;2.10;;;17.10;95.50;17.50;101063.00;;;;4922135;28;108828;-69
2023/05/13 06:23:27;;;;;;;2.25;2.05;;;17.30;95.00;17.70;101074.00;;;;4927081;28;120107;-69
2023/05/13 06:25:53;;;;;;;3.25;2.50;;;17.50;94.50;17.90;101074.00;;;;4923408;28;121427;-69
2023/05/13 06:28:19;;;;;;;2.38;2.17;;;17.70;94.00;18.10;101074.00;;;;4921924;28;92771;-68
2023/05/13 06:30:45;;;;;;;3.75;2.85;;;18.00;93.30;18.30;101072.00;;;;4924816;28;95680;-69
2023/05/13 06:33:11;;;;;;;2.35;2.05;;;18.20;92.40;18.50;101078.00;;;;4922387;28;93991;-70
2023/05/13 06:35:38;;;;;;;2.50;2.28;;;18.40;91.80;18.70;101076.00;;;;4923981;28;93115;-71
2023/05/13 06:38:03;;;;;;;3.97;2.33;;;18.60;91.30;19.00;101073.00;;;;4922499;28;93154;-72
2023/05/13 06:40:29;;;;;;;4.25;2.40;;;18.80;90.70;19.20;101070.00;;;;4921700;28;92923;-69
2023/05/13 06:42:55;;;;;;;2.28;1.83;;;19.00;88.70;19.30;101071.00;;;;4923927;28;93683;-69
2023/05/13 06:45:22;;;;;;;2.78;1.85;;;19.20;86.90;19.60;101071.00;;;;4921611;28;121087;-69
2023/05/13 06:47:52;;;;;;;3.85;2.28;;;19.40;86.20;19.80;101072.00;;;;4924761;28;92266;-69
2023/05/13 06:50:18;;;;;;;3.03;1.90;;;19.60;85.30;20.10;101071.00;;;;4923758;28;92983;-70
2023/05/13 06:52:44;;;;;;;2.67;2.30;;;19.80;84.00;20.20;101071.00;;;;4921393;28;94367;-71
2023/05/13 06:55:10;;;;;;;2.15;1.95;;;20.00;81.90;20.40;101063.00;;;;4921349;28;112526;-69
2023/05/13 06:57:35;;;;;;;1.70;1.60;;;20.20;81.20;20.60;101078.00;;;;4925155;28;93099;-70
2023/05/13 07:00:02;;;;;;;2.80;2.42;;;20.50;80.40;20.90;101068.00;;;;4921746;28;92917;-69
2023/05/13 07:02:28;;;;;;;2.60;1.77;;;20.70;77.00;21.10;101072.00;;;;4887575;28;98844;-70
2023/05/13 07:04:54;;;;;;;2.42;1.92;;;20.90;75.40;21.20;101071.00;;;;4920534;28;123038;-72
2023/05/13 07:07:19;;;;;;;3.30;1.60;;;21.00;73.40;21.40;101066.00;;;;4915834;28;94505;-71
2023/05/13 07:09:45;;;;;;;2.55;1.63;;;21.10;73.20;21.60;101075.00;;;;4934660;28;93104;-69
2023/05/13 07:12:11;;;;;;;2.75;1.70;;;21.40;72.10;21.80;101070.00;;;;4910552;28;121463;-71
2023/05/13 07:14:36;;;;;;;3.30;1.55;;;21.60;70.90;21.90;101073.00;;;;4926269;28;100702;-71
2023/05/13 07:17:03;;;;;;;5.10;1.98;;;21.70;68.90;22.00;101074.00;;;;4920004;28;110611;-69
2023/05/13 07:19:29;;;;;;;2.15;1.63;;;21.80;67.00;22.10;101082.00;;;;4921803;28;93834;-70
2023/05/13 07:21:54;;;;;;;1.52;1.42;;;21.90;66.00;22.10;101075.00;;;;4923994;28;93105;-70
2023/05/13 07:24:20;;;;;;;1.92;1.40;;;22.00;64.50;22.10;101068.00;;;;4920343;28;93771;-69
2023/05/13 07:26:46;;;;;;;2.75;2.10;;;22.00;62.90;22.20;101056.00;;;;4921927;28;93131;-69
2023/05/13 07:29:11;;;;;;;1.73;1.35;;;22.10;62.70;22.30;101063.00;;;;4919923;28;109089;-70
2023/05/13 07:31:37;;;;;;;2.13;1.42;;;22.20;61.00;22.40;101058.00;;;;4922477;28;93330;-69
2023/05/13 07:34:03;;;;;;;1.25;1.15;;;22.20;60.00;22.50;101060.00;;;;4925025;28;92993;-69
2023/05/13 07:36:29;;;;;;;1.95;1.60;;;22.30;60.10;22.60;101055.00;;;;4923312;28;92221;-72
2023/05/13 07:38:54;;;;;;;1.52;1.42;;;22.50;59.80;22.80;101053.00;;;;4921308;28;108285;-69
2023/05/13 07:41:20;;;;;;;3.00;1.55;;;22.60;59.20;22.90;101053.00;;;;4920657;28;121267;-70
2023/05/13 07:43:46;;;;;;;2.58;1.20;;;22.70;58.80;23.00;101061.00;;;;4920295;28;94180;-70
2023/05/13 07:46:12;;;;;;;2.28;1.38;;;22.90;58.00;23.20;101058.00;;;;4927241;28;110453;-71
2023/05/13 07:48:37;;;;;;;6.38;1.80;;;23.00;57.30;23.20;101055.00;;;;4919140;28;92961;-70
2023/05/13 07:51:04;;;;;;;2.63;1.65;;;23.00;56.30;23.20;101058.00;;;;4922220;28;94183;-71
2023/05/13 07:53:30;;;;;;;2.60;1.40;;;23.00;55.90;23.10;101063.00;;;;4921197;28;122876;-71
2023/05/13 07:55:55;;;;;;;1.70;1.60;;;23.00;55.70;23.20;101069.00;;;;4919137;28;110442;-70
2023/05/13 07:58:21;;;;;;;2.45;1.90;;;23.00;55.40;23.20;101063.00;;;;4920389;28;97299;-70
2023/05/13 08:00:48;;;;;;;4.65;1.63;;;23.10;55.70;23.30;101064.00;;;;4923957;28;92785;-71
2023/05/13 08:03:15;;;;;;;3.10;2.28;;;23.20;55.00;23.30;101076.00;;;;4920378;28;93029;-69
2023/05/13 08:05:41;;;;;;;3.00;2.60;;;23.20;55.20;23.40;101061.00;;;;4918177;28;93090;-70
2023/05/13 08:08:06;;;;;;;2.03;1.60;;;23.20;55.20;23.50;101065.00;;;;4920472;28;94007;-72
2023/05/13 08:10:32;;;;;;;5.10;1.85;;;23.30;54.50;23.60;101052.00;;;;4922549;28;120897;-71
2023/05/13 08:12:59;;;;;;;1.60;1.50;;;23.40;54.40;23.70;101058.00;;;;4921507;28;121411;-70
2023/05/13 08:15:26;;;;;;;2.25;1.98;;;23.50;53.80;23.80;101055.00;;;;4922569;28;92871;-70
2023/05/13 08:17:52;;;;;;;1.77;1.50;;;23.60;53.80;24.00;101058.00;;;;4922472;28;93426;-72
2023/05/13 08:20:19;;;;;;;1.77;1.55;;;23.70;53.10;24.00;101054.00;;;;4920206;28;93265;-76
2023/05/13 08:22:46;;;;;;;1.73;1.63;;;23.80;51.40;23.90;101050.00;;;;4921359;28;93697;-76
2023/05/13 08:25:11;;;;;;;2.05;1.70;;;23.80;50.60;23.80;101049.00;;;;4921635;28;92174;-76
2023/05/13 08:27:37;;;;;;;1.67;1.58;;;23.70;51.20;23.80;101050.00;;;;4925367;28;93071;-72
2023/05/13 08:30:05;;;;;;;1.98;1.80;;;23.60;51.70;23.90;101051.00;;;;4920197;28;122788;-73
2023/05/13 08:32:30;;;;;;;2.45;1.55;;;23.70;51.90;24.10;101053.00;;;;4927157;28;94091;-72
2023/05/13 08:34:56;;;;;;;3.30;1.65;;;23.80;51.30;24.10;101053.00;;;;4920902;28;108573;-76
2023/05/13 08:37:22;;;;;;;2.38;1.98;;;23.90;50.60;24.10;101043.00;;;;4922471;28;93476;-72
2023/05/13 08:39:47;;;;;;;2.42;1.42;;;23.90;50.10;24.10;101043.00;;;;4921558;28;123090;-72
2023/05/13 08:42:18;;;;;;;5.30;1.80;;;24.00;49.40;24.20;101041.00;;;;4919969;28;121798;-72
2023/05/13 08:44:44;;;;;;;1.55;1.35;;;24.00;48.80;24.10;101048.00;;;;4920535;28;93189;-72
2023/05/13 08:47:25;;;;;;;2.90;1.92;;;24.00;48.20;24.10;101047.00;;;;4922294;28;110022;-71
2023/05/13 08:49:51;;;;;;;3.67;1.48;;;23.90;47.30;23.90;101048.00;;;;4921442;28;92083;-75
2023/05/13 08:52:19;;;;;;;2.30;2.10;;;23.70;47.90;23.90;101046.00;;;;4921134;28;121886;-71
2023/05/13 08:54:46;;;;;;;2.33;1.35;;;23.70;47.70;23.90;101045.00;;;;4918633;28;92795;-71
2023/05/13 08:57:12;;;;;;;1.52;1.40;;;23.70;47.20;24.00;101054.00;;;;4923785;28;93887;-75
2023/05/13 08:59:37;;;;;;;3.13;1.88;;;23.70;47.60;23.90;101047.00;;;;4919689;28;123167;-74
2023/05/13 09:02:04;;;;;;;3.33;2.03;;;23.70;46.80;24.00;101051.00;;;;4922309;28;121822;-76
2023/05/13 09:04:31;;;;;;;3.50;2.10;;;23.70;46.70;24.20;101039.00;;;;4918491;28;109676;-73
2023/05/13 09:06:57;;;;;;;3.25;1.45;;;23.80;46.70;24.40;101051.00;;;;4923037;28;93259;-76
2023/05/13 09:09:23;;;;;;;2.55;1.85;;;24.00;45.90;24.60;101047.00;;;;4920235;28;123905;-73
2023/05/13 09:11:49;;;;;;;3.50;1.85;;;24.10;46.30;24.80;101055.00;;;;4918453;28;121763;-73
2023/05/13 09:14:18;;;;;;;2.22;1.67;;;24.40;45.30;25.00;101044.00;;;;4923493;28;92508;-74
2023/05/13 09:16:44;;;;;;;3.13;1.55;;;24.60;45.10;25.20;101040.00;;;;4920392;28;93021;-76
2023/05/13 09:19:10;;;;;;;2.10;1.92;;;24.80;45.00;25.40;101045.00;;;;4916945;28;94117;-74
2023/05/13 09:21:36;;;;;;;1.42;1.33;;;25.10;44.00;25.50;101038.00;;;;4921151;28;93864;-74
2023/05/13 09:24:11;;;;;;;3.83;1.92;;;25.10;43.70;25.70;101044.00;;;;4919503;28;108207;-73
2023/05/13 09:26:39;;;;;;;1.67;1.52;;;25.30;43.00;25.80;101045.00;;;;4918055;28;93396;-73
2023/05/13 09:29:28;;;;;;;4.18;1.38;;;25.40;41.10;25.70;101051.00;;;;4903944;28;95635;-75
2023/05/13 09:31:59;;;;;;;3.30;1.52;;;25.40;40.40;25.60;101046.00;;;;4922717;28;93048;-74
2023/05/13 09:34:33;;;;;;;4.10;1.88;;;25.40;41.00;25.60;101048.00;;;;4920981;28;92771;-76
2023/05/13 09:37:03;;;;;;;1.42;1.33;;;25.30;40.60;25.80;101046.00;;;;4921942;28;93355;-75
2023/05/13 09:39:31;;;;;;;2.08;1.67;;;25.40;41.00;25.70;101038.00;;;;4914080;28;94071;-73
2023/05/13 09:41:57;;;;;;;3.00;1.80;;;25.40;38.70;25.50;101045.00;;;;4923638;28;93152;-72
2023/05/13 09:44:23;;;;;;;2.60;1.52;;;25.30;38.30;25.40;101050.00;;;;4922076;28;93059;-72
2023/05/13 09:46:51;;;;;;;1.73;1.58;;;25.10;38.80;25.30;101048.00;;;;4919369;28;107333;-73
2023/05/13 09:49:17;;;;;;;5.40;1.90;;;25.00;38.70;25.40;101046.00;;;;4916291;28;93201;-76
2023/05/13 09:51:44;;;;;;;4.25;2.22;;;25.00;39.20;25.50;101046.00;;;;4920590;28;93744;-75
2023/05/13 09:54:10;;;;;;;3.17;1.67;;;25.10;38.00;25.40;101046.00;;;;4922450;28;92962;-72
2023/05/13 09:56:36;;;;;;;1.58;1.45;;;25.00;38.40;25.40;101036.00;;;;4923488;28;107880;-73
2023/05/13 09:59:02;;;;;;;1.65;1.55;;;25.00;38.80;25.50;101037.00;;;;4918908;28;122861;-73
2023/05/13 10:01:29;;;;;;;2.03;1.70;;;25.00;39.10;25.60;101041.00;;;;4924223;28;121391;-73
2023/05/13 10:03:58;;;;;;;3.75;1.88;;;25.10;38.50;25.60;101040.00;;;;4918933;28;93511;-76
2023/05/13 10:06:27;;;;;;;2.35;1.20;;;25.10;37.70;25.60;101037.00;;;;4909771;28;93237;-73
2023/05/13 10:08:55;;;;;;;2.83;1.48;;;25.10;37.90;25.70;101033.00;;;;4901574;28;93341;-73
2023/05/13 10:11:22;;;;;;;5.05;1.73;;;25.20;38.10;25.90;101039.00;;;;4906194;28;94991;-72
2023/05/13 10:14:15;;;;;;;1.92;1.65;;;25.40;37.80;26.10;101034.00;;;;4922943;28;100093;-72
2023/05/13 10:16:41;;;;;;;1.50;1.25;;;25.50;37.80;26.30;101042.00;;;;4916507;28;93245;-73
2023/05/13 10:19:08;;;;;;;2.38;1.50;;;25.70;37.40;26.20;101037.00;;;;4924623;28;93466;-72
2023/05/13 10:21:35;;;;;;;1.70;1.60;;;25.70;36.30;26.00;101028.00;;;;4919691;28;122133;-72
2023/05/13 10:24:02;;;;;;;1.58;1.38;;;25.60;35.60;25.90;101032.00;;;;4924702;28;92970;-73
2023/05/13 10:26:28;;;;;;;2.40;1.73;;;25.50;37.00;26.10;101029.00;;;;4924280;28;92780;-73
2023/05/13 10:28:55;;;;;;;3.10;1.58;;;25.60;36.80;26.20;101028.00;;;;4923481;28;121318;-72
2023/05/13 10:31:20;;;;;;;2.13;1.50;;;25.60;36.90;26.20;101022.00;;;;4923380;28;93111;-73
2023/05/13 10:33:46;;;;;;;4.43;1.90;;;25.70;37.20;26.30;101031.00;;;;4921328;28;110640;-73
2023/05/13 10:36:24;;;;;;;3.08;1.58;;;25.80;36.50;26.30;101027.00;;;;4922022;28;108999;-73
2023/05/13 10:39:16;;;;;;;2.53;1.88;;;25.80;36.70;26.60;101017.00;;;;4919723;28;95461;-73
2023/05/13 10:42:18;;;;;;;1.83;1.23;;;26.00;36.90;27.00;101019.00;;;;4918003;28;93272;-73
2023/05/13 10:44:44;;;;;;;1.92;1.60;;;26.30;36.40;27.30;101020.00;;;;4920707;28;93317;-74